Anza Borrego Desert State Park, California Weather observations

Data are for 10 minute period ending at time listed.
 Day   Time   Solar   Ave.   Ave.  Ave.  Vector  Max.   Baro.   Total    
  of    of     Rad.   Air    Rel.  Wind   Wind   Wind  Press.  Precip.   
Year   Day            Temp.  Hum.  Speed  Dir.   Gust                    
2016   (PST)  Kw/m2    F      %     mph   deg.    mph    mb.     in.     
-------------------------------------------------------------------------
 236   10:40   0.86   98.4    17    4.4   109    10.4   984.1    0.00 
 236   10:50   0.87   98.9    17    4.4   110     9.7   984.0    0.00 
 236   11:00   0.88   98.9    17    6.8   117    13.1   984.0    0.00 
 236   11:10   0.89   98.9    17    6.6    90    13.3   983.9    0.00 
 236   11:20   0.90   99.3    17    4.5    70    10.3   983.8    0.00 
 236   11:30   0.90   98.9    17    7.5    78    14.3   983.7    0.00 
 236   11:40   0.91   99.1    16    5.9    98    10.6   983.6    0.00 
 236   11:50   0.91  100.7    16    5.1   122    11.8   983.5    0.00 
 236   12:00   0.91  100.3    16    4.8   109    11.5   983.3    0.00 
 236   12:10   0.91  100.3    16    6.5   107    12.9   983.3    0.00 
 236   12:20   0.90  100.7    16    5.6   131    12.8   983.2    0.00 
 236   12:30   0.90  101.0    16    6.1   129    13.4   983.1    0.00 
 236   12:40   0.89  101.4    16    9.7    92    14.4   983.0    0.00 
 236   12:50   0.86  101.3    16    7.2   100    14.0   982.9    0.00 
 236   13:00   0.87  101.5    16    8.8    76    16.7   982.8    0.00 
 236   13:10   0.86  102.0    15    6.7   122    12.8   982.7    0.00 
 236   13:20   0.85  101.9    15    8.3   114    14.8   982.5    0.00 
 236   13:30   0.83  102.6    15    6.5    97    14.5   982.4    0.00 
 236   13:40   0.81  102.5    15    9.1   116    14.9   982.3    0.00 
 236   13:50   0.80  102.2    15    8.9    99    15.1   982.2    0.00 
 236   14:00   0.77  103.4    14    4.9   108    11.9   982.0    0.00 
 236   14:10   0.75  103.5    14    5.5    76    12.5   981.9    0.00 
 236   14:20   0.73  103.5    14    7.6    97    14.0   981.7    0.00 
 236   14:30   0.70  103.3    14    8.6   105    14.6   981.6    0.00 
 236   14:40   0.68  103.5    14    7.6   110    13.2   981.5    0.00 
 236   14:50   0.65  103.3    14    9.1   109    14.5   981.5    0.00 
 236   15:00   0.62  103.6    14    5.8    98    10.2   981.4    0.00 
 236   15:10   0.59  103.9    14    4.3    64     8.3   981.2    0.00 
 236   15:20   0.56  103.7    14    5.5    94    11.6   981.2    0.00 
 236   15:30   0.53  104.4    14    6.3   108    10.4   981.1    0.00 
 236   15:40   0.49  104.1    14    4.4    74     9.5   981.0    0.00 
 236   15:50   0.46  103.8    15    7.1   354    13.0   981.0    0.00 
 236   16:00   0.42  103.8    16    9.3   313    17.1   980.9    0.00 
 236   16:10   0.39  102.8    16   10.3   314    16.1   980.9    0.00 
 236   16:20   0.36  102.6    17   11.9   284    16.8   981.0    0.00 
 236   16:30   0.32  101.9    17   11.3   286    19.4   981.0    0.00 
 236   16:40   0.29  101.9    17   10.7   282    16.6   981.0    0.00 
 236   16:50   0.25  102.1    16   10.6   262    16.0   980.9    0.00 
 236   17:00   0.22  102.2    16    7.3   271    11.0   980.8    0.00 
 236   17:10   0.15  101.8    16    8.2   306    12.3   980.9    0.00 
 236   17:20   0.04   99.8    17    6.8   311    11.8   980.9    0.00 
 236   17:30   0.03   98.7    18    8.6   330    13.2   980.8    0.00 
 236   17:40   0.03   98.1    18    7.3   319    14.2   980.8    0.00 
 236   17:50   0.02   97.7    18    9.4   310    16.4   980.8    0.00 
 236   18:00   0.01   97.1    18   11.8   321    19.6   980.9    0.00 
 236   18:10   0.01   96.9    18    9.3   314    16.1   981.0    0.00 
 236   18:20   0.00   96.5    18   10.0   309    21.3   981.1    0.00 
 236   18:30   0.00   96.3    18   11.6   311    21.6   981.0    0.00 
 236   18:40   0.00   96.2    18    9.8   314    19.3   981.1    0.00 
 236   18:50   0.00   95.8    19    9.0   317    16.1   981.2    0.00 
 236   19:00   0.00   95.6    19    9.6   317    14.9   981.2    0.00 
 236   19:10   0.00   95.4    19    7.6   303    16.9   981.2    0.00 
 236   19:20   0.00   95.3    18    9.8   312    16.4   981.3    0.00 
 236   19:30   0.00   95.3    18    7.2   315    13.4   981.5    0.00 
 236   19:40   0.00   95.2    19    6.4   343    13.3   981.6    0.00 
 236   19:50   0.00   94.9    19    3.7   100     8.9   981.9    0.00 
 236   20:00   0.00   94.4    19    4.1    44     8.3   981.9    0.00 
 236   20:10   0.00   94.0    20    4.1    70     6.6   982.0    0.00 
 236   20:20   0.00   93.3    20    2.5    51     4.7   982.0    0.00 
 236   20:30   0.00   91.7    21    1.0   228     4.4   982.0    0.00 
 236   20:40   0.00   91.0    21    1.8   241     3.7   982.0    0.00 
 236   20:50   0.00   90.7    22    1.3   168     3.6   982.0    0.00 
 236   21:00   0.00   90.2    22    2.6   212     5.2   982.0    0.00 
 236   21:10   0.00   89.3    22    5.1   243     7.6   982.1    0.00 
 236   21:20   0.00   88.7    23    5.0   247     8.6   982.0    0.00 
 236   21:30   0.00   88.7    23    4.2   250     6.6   982.1    0.00 
 236   21:40   0.00   88.8    23    2.8   257     4.2   982.1    0.00 
 236   21:50   0.00   89.1    23    1.2   196     3.4   982.1    0.00 
 236   22:00   0.00   87.2    24    3.1   242     4.1   982.1    0.00 
 236   22:10   0.00   85.3    25    1.9   238     3.4   982.1    0.00 
 236   22:20   0.00   84.8    25    2.2   193     4.3   982.1    0.00 
 236   22:30   0.00   83.9    26    3.3   198     4.7   982.0    0.00 
 236   22:40   0.00   82.8    27    4.0   205     5.2   982.0    0.00 
 236   22:50   0.00   83.2    27    4.0   229     5.3   982.0    0.00 
 236   23:00   0.00   83.5    26    3.4   248     4.3   982.0    0.00 
 236   23:10   0.00   82.5    27    2.5   326     3.7   982.1    0.00 
 236   23:20   0.00   82.8    27    2.4   330     3.6   982.1    0.00 
 236   23:30   0.00   81.7    28    1.7   305     3.3   982.2    0.00 
 236   23:40   0.00   81.8    28    1.5   188     2.7   982.2    0.00 
 236   23:50   0.00   80.9    28    3.9   248     5.6   982.2    0.00 
 237    0:00   0.00   81.2    28    5.2   260     5.8   982.1    0.00 
 237    0:10   0.00   81.5    28    5.4   243     6.8   982.1    0.00 
 237    0:20   0.00   80.8    28    3.0   233     4.0   982.1    0.00 
 237    0:30   0.00   79.8    29    2.6   188     3.4   982.2    0.00 
 237    0:40   0.00   80.3    28    2.8   184     4.2   982.2    0.00 
 237    0:50   0.00   80.3    28    4.1   212     5.8   982.3    0.00 
 237    1:00   0.00   80.2    28    4.4   230     6.6   982.3    0.00 
 237    1:10   0.00   80.7    28    4.4   216     6.2   982.3    0.00 
 237    1:20   0.00   82.2    26    5.2   239     6.4   982.3    0.00 
 237    1:30   0.00   81.3    27    6.5   259     7.4   982.2    0.00 
 237    1:40   0.00   81.0    27    4.0   239     5.5   982.2    0.00 
 237    1:50   0.00   79.9    28    4.6   205     5.4   982.1    0.00 
 237    2:00   0.00   82.0    26    2.5   200     3.9   982.0    0.00 
 237    2:10   0.00   81.7    26    1.4   235     2.9   981.9    0.00 
 237    2:20   0.00   80.6    27    3.2   285     5.2   981.9    0.00 
 237    2:30   0.00   81.7    27    3.2   247     3.7   981.9    0.00 
 237    2:40   0.00   79.4    28    4.6   220     5.1   981.9    0.00 
 237    2:50   0.00   79.0    28    3.3   223     4.6   981.9    0.00 
 237    3:00   0.00   80.1    28    4.8   220     5.7   981.8    0.00 
 237    3:10   0.00   81.4    27    4.5   223     5.6   981.9    0.00 
 237    3:20   0.00   80.6    27    5.4   204     7.8   981.9    0.00 
 237    3:30   0.00   80.9    27    5.6   208     7.2   981.9    0.00 
 237    3:40   0.00   80.7    26    5.1   232     7.8   981.9    0.00 
 237    3:50   0.00   79.1    28    4.2   243     5.7   981.9    0.00 
 237    4:00   0.00   78.8    27    2.2   243     3.9   981.9    0.00 
 237    4:10   0.00   78.6    27    1.3   262     3.7   982.0    0.00 
 237    4:20   0.00   78.9    28    2.0   330     3.8   982.2    0.00 
 237    4:30   0.00   78.3    28    2.4   248     3.8   982.3    0.00 
 237    4:40   0.00   78.4    28    2.6   237     5.1   982.5    0.00 
 237    4:50   0.00   78.2    28    3.9   248     5.3   982.5    0.00 
 237    5:00   0.00   78.2    28    4.1   245     4.9   982.5    0.00 
 237    5:10   0.00   78.3    28    4.2   254     5.1   982.6    0.00 
 237    5:20   0.00   78.5    28    3.5   244     4.4   982.7    0.00 
 237    5:30   0.01   78.6    27    4.1   236     6.0   982.8    0.00 
 237    5:40   0.02   78.9    27    4.7   252     5.9   982.8    0.00 
 237    5:50   0.04   80.0    27    2.5   285     5.2   982.8    0.00 
 237    6:00   0.07   81.4    26    1.8   349     3.3   982.8    0.00 
 237    6:10   0.09   83.5    25    1.5   304     2.7   982.8    0.00 
 237    6:20   0.11   85.7    24    1.1   243     2.0   982.7    0.00 
 237    6:30   0.14   87.8    22    1.9   191     2.4   982.7    0.00 
 237    6:40   0.17   89.6    21    2.6   182     3.7   982.7    0.00 
 237    6:50   0.21   91.1    20    4.1   173     6.4   982.7    0.00 
 237    7:00   0.24   91.2    20    4.2   180     5.8   982.7    0.00 
 237    7:10   0.28   92.2    20    3.9   171     5.4   982.7    0.00 
 237    7:20   0.31   92.5    20    5.7   162     8.8   982.8    0.00 
 237    7:30   0.35   92.6    19    6.7   174     8.4   982.9    0.00 
 237    7:40   0.38   93.4    19    6.9   178     8.6   983.0    0.00 
 237    7:50   0.42   94.4    18    6.3   165     9.6   983.0    0.00 
 237    8:00   0.45   95.2    17    5.7   164     7.7   983.1    0.00 
 237    8:10   0.48   96.3    17    4.0   168     6.7   983.2    0.00 
 237    8:20   0.52   96.6    16    6.4   158     9.3   983.3    0.00 
 237    8:30   0.55   96.3    17    7.4   144    10.7   983.4    0.00 
 237    8:40   0.58   96.5    17    8.3   128    13.2   983.5    0.00 
 237    8:50   0.61   95.8    18    9.2   111    13.9   983.7    0.00 
 237    9:00   0.64   95.9    18    8.5   104    15.1   983.9    0.00 
 237    9:10   0.67   96.5    17    4.3   110     8.3   984.0    0.00 
 237    9:20   0.69   97.3    17    4.3   130     9.2   984.0    0.00 
 237    9:30   0.72   97.3    17    4.6   114     9.2   983.9    0.00 
 237    9:40   0.74   99.0    16    2.8   158     5.6   983.8    0.00 
 237    9:50   0.77   99.3    16    2.9    37     6.6   983.8    0.00 
 237   10:00   0.78   98.9    16    4.3    74     7.2   983.7    0.00 
 237   10:10   0.80   98.8    16    6.8   100    13.2   983.6    0.00 
 237   10:20   0.82   98.5    16    6.6   106    13.8   983.6    0.00 
 237   10:30   0.84   99.6    16    6.2   140    12.8   983.5    0.00 

Return to Anza Borrego Desert State Park graphs page.


Western Regional Climate Center,wrcc@dri.edu